sensor_id;sensor_type;location;lat;lon;timestamp;P1;durP1;ratioP1;P2;durP2;ratioP2
9372;SDS011;10838;52.350;9.790;2023-04-28T00:02:12;5.60;;;2.50;;
9372;SDS011;10838;52.350;9.790;2023-04-28T00:04:39;3.07;;;2.73;;
9372;SDS011;10838;52.350;9.790;2023-04-28T00:07:06;5.10;;;2.80;;
9372;SDS011;10838;52.350;9.790;2023-04-28T00:09:33;5.90;;;3.00;;
9372;SDS011;10838;52.350;9.790;2023-04-28T00:12:00;4.40;;;2.50;;
9372;SDS011;10838;52.350;9.790;2023-04-28T00:14:27;3.53;;;2.23;;
9372;SDS011;10838;52.350;9.790;2023-04-28T00:16:54;8.33;;;2.80;;
9372;SDS011;10838;52.350;9.790;2023-04-28T00:19:23;4.60;;;2.70;;
9372;SDS011;10838;52.350;9.790;2023-04-28T00:21:49;3.13;;;2.90;;
9372;SDS011;10838;52.350;9.790;2023-04-28T00:24:16;3.67;;;2.97;;
9372;SDS011;10838;52.350;9.790;2023-04-28T00:26:42;3.87;;;2.57;;
9372;SDS011;10838;52.350;9.790;2023-04-28T00:29:10;4.30;;;3.00;;
9372;SDS011;10838;52.350;9.790;2023-04-28T00:31:37;7.03;;;3.07;;
9372;SDS011;10838;52.350;9.790;2023-04-28T00:34:03;5.23;;;3.00;;
9372;SDS011;10838;52.350;9.790;2023-04-28T00:36:30;4.13;;;2.67;;
9372;SDS011;10838;52.350;9.790;2023-04-28T00:38:57;5.93;;;3.07;;
9372;SDS011;10838;52.350;9.790;2023-04-28T00:41:23;4.67;;;3.17;;
9372;SDS011;10838;52.350;9.790;2023-04-28T00:43:50;4.57;;;2.90;;
9372;SDS011;10838;52.350;9.790;2023-04-28T00:46:20;5.87;;;2.43;;
9372;SDS011;10838;52.350;9.790;2023-04-28T00:48:49;4.17;;;3.10;;
9372;SDS011;10838;52.350;9.790;2023-04-28T00:51:16;8.90;;;3.00;;
9372;SDS011;10838;52.350;9.790;2023-04-28T00:53:43;5.00;;;2.93;;
9372;SDS011;10838;52.350;9.790;2023-04-28T00:56:09;4.20;;;3.10;;
9372;SDS011;10838;52.350;9.790;2023-04-28T00:58:36;8.07;;;3.10;;
9372;SDS011;10838;52.350;9.790;2023-04-28T01:01:03;4.30;;;3.00;;
9372;SDS011;10838;52.350;9.790;2023-04-28T01:03:33;5.93;;;3.10;;
9372;SDS011;10838;52.350;9.790;2023-04-28T01:06:03;8.37;;;3.40;;
9372;SDS011;10838;52.350;9.790;2023-04-28T01:08:30;4.53;;;2.83;;
9372;SDS011;10838;52.350;9.790;2023-04-28T01:10:57;5.73;;;3.30;;
9372;SDS011;10838;52.350;9.790;2023-04-28T01:13:23;4.50;;;2.70;;
9372;SDS011;10838;52.350;9.790;2023-04-28T01:15:50;8.73;;;3.30;;
9372;SDS011;10838;52.350;9.790;2023-04-28T01:18:17;9.77;;;3.40;;
9372;SDS011;10838;52.350;9.790;2023-04-28T01:20:45;5.23;;;3.20;;
9372;SDS011;10838;52.350;9.790;2023-04-28T01:23:12;4.50;;;3.23;;
9372;SDS011;10838;52.350;9.790;2023-04-28T01:25:40;8.07;;;3.43;;
9372;SDS011;10838;52.350;9.790;2023-04-28T01:28:08;3.37;;;3.07;;
9372;SDS011;10838;52.350;9.790;2023-04-28T01:30:35;7.40;;;3.10;;
9372;SDS011;10838;52.350;9.790;2023-04-28T01:33:02;4.50;;;3.00;;
9372;SDS011;10838;52.350;9.790;2023-04-28T01:35:29;6.07;;;3.47;;
9372;SDS011;10838;52.350;9.790;2023-04-28T01:37:56;7.13;;;3.13;;
9372;SDS011;10838;52.350;9.790;2023-04-28T01:40:22;7.50;;;3.40;;
9372;SDS011;10838;52.350;9.790;2023-04-28T01:42:50;3.50;;;2.97;;
9372;SDS011;10838;52.350;9.790;2023-04-28T01:45:17;8.60;;;3.30;;
9372;SDS011;10838;52.350;9.790;2023-04-28T01:47:43;7.73;;;3.37;;
9372;SDS011;10838;52.350;9.790;2023-04-28T01:50:10;8.00;;;3.13;;
9372;SDS011;10838;52.350;9.790;2023-04-28T01:52:36;4.27;;;3.70;;
9372;SDS011;10838;52.350;9.790;2023-04-28T01:55:03;5.27;;;3.60;;
9372;SDS011;10838;52.350;9.790;2023-04-28T01:57:30;7.37;;;3.60;;
9372;SDS011;10838;52.350;9.790;2023-04-28T02:00:00;5.77;;;2.93;;
9372;SDS011;10838;52.350;9.790;2023-04-28T02:02:27;3.43;;;3.00;;
9372;SDS011;10838;52.350;9.790;2023-04-28T02:04:54;3.33;;;3.07;;
9372;SDS011;10838;52.350;9.790;2023-04-28T02:07:22;5.00;;;2.90;;
9372;SDS011;10838;52.350;9.790;2023-04-28T02:09:48;3.87;;;2.83;;
9372;SDS011;10838;52.350;9.790;2023-04-28T02:12:15;3.37;;;3.10;;
9372;SDS011;10838;52.350;9.790;2023-04-28T02:14:41;4.90;;;3.10;;
9372;SDS011;10838;52.350;9.790;2023-04-28T02:17:09;6.40;;;3.30;;
9372;SDS011;10838;52.350;9.790;2023-04-28T02:19:36;5.73;;;3.20;;
9372;SDS011;10838;52.350;9.790;2023-04-28T02:22:02;6.07;;;3.33;;
9372;SDS011;10838;52.350;9.790;2023-04-28T02:24:29;4.33;;;3.07;;
9372;SDS011;10838;52.350;9.790;2023-04-28T02:26:59;5.70;;;3.43;;
9372;SDS011;10838;52.350;9.790;2023-04-28T02:29:25;6.97;;;3.30;;
9372;SDS011;10838;52.350;9.790;2023-04-28T02:31:52;5.50;;;3.30;;
9372;SDS011;10838;52.350;9.790;2023-04-28T02:34:20;6.83;;;3.30;;
9372;SDS011;10838;52.350;9.790;2023-04-28T02:36:47;5.80;;;3.20;;
9372;SDS011;10838;52.350;9.790;2023-04-28T02:39:13;5.20;;;3.40;;
9372;SDS011;10838;52.350;9.790;2023-04-28T02:41:40;6.77;;;3.47;;
9372;SDS011;10838;52.350;9.790;2023-04-28T02:44:07;4.67;;;3.30;;
9372;SDS011;10838;52.350;9.790;2023-04-28T02:46:33;5.00;;;3.10;;
9372;SDS011;10838;52.350;9.790;2023-04-28T02:49:00;5.20;;;3.37;;
9372;SDS011;10838;52.350;9.790;2023-04-28T02:51:28;3.80;;;3.50;;
9372;SDS011;10838;52.350;9.790;2023-04-28T02:53:55;4.50;;;3.03;;
9372;SDS011;10838;52.350;9.790;2023-04-28T02:56:21;4.83;;;2.90;;
9372;SDS011;10838;52.350;9.790;2023-04-28T02:58:48;6.13;;;3.37;;
9372;SDS011;10838;52.350;9.790;2023-04-28T03:01:14;4.77;;;3.67;;
9372;SDS011;10838;52.350;9.790;2023-04-28T03:03:41;3.50;;;3.20;;
9372;SDS011;10838;52.350;9.790;2023-04-28T03:06:08;6.63;;;3.63;;
9372;SDS011;10838;52.350;9.790;2023-04-28T03:08:35;4.93;;;3.20;;
9372;SDS011;10838;52.350;9.790;2023-04-28T03:11:02;6.03;;;3.07;;
9372;SDS011;10838;52.350;9.790;2023-04-28T03:13:29;4.77;;;3.50;;
9372;SDS011;10838;52.350;9.790;2023-04-28T03:15:55;4.60;;;3.40;;
9372;SDS011;10838;52.350;9.790;2023-04-28T03:18:22;6.50;;;3.20;;
9372;SDS011;10838;52.350;9.790;2023-04-28T03:20:48;3.80;;;3.47;;
9372;SDS011;10838;52.350;9.790;2023-04-28T03:23:15;4.90;;;3.50;;
9372;SDS011;10838;52.350;9.790;2023-04-28T03:25:43;4.73;;;3.50;;
9372;SDS011;10838;52.350;9.790;2023-04-28T03:28:10;3.70;;;3.17;;
9372;SDS011;10838;52.350;9.790;2023-04-28T03:30:36;7.50;;;3.87;;
9372;SDS011;10838;52.350;9.790;2023-04-28T03:33:03;6.90;;;3.23;;
9372;SDS011;10838;52.350;9.790;2023-04-28T03:35:29;4.27;;;3.83;;
9372;SDS011;10838;52.350;9.790;2023-04-28T03:37:56;3.93;;;3.50;;
9372;SDS011;10838;52.350;9.790;2023-04-28T03:40:22;5.63;;;3.33;;
9372;SDS011;10838;52.350;9.790;2023-04-28T03:42:51;8.30;;;3.43;;
9372;SDS011;10838;52.350;9.790;2023-04-28T03:45:17;5.07;;;3.63;;
9372;SDS011;10838;52.350;9.790;2023-04-28T03:47:44;7.20;;;3.43;;
9372;SDS011;10838;52.350;9.790;2023-04-28T03:50:10;5.27;;;3.73;;
9372;SDS011;10838;52.350;9.790;2023-04-28T03:52:37;4.73;;;3.83;;
9372;SDS011;10838;52.350;9.790;2023-04-28T03:55:03;8.00;;;3.60;;
9372;SDS011;10838;52.350;9.790;2023-04-28T03:57:31;8.70;;;3.80;;
9372;SDS011;10838;52.350;9.790;2023-04-28T03:59:58;6.90;;;4.20;;
9372;SDS011;10838;52.350;9.790;2023-04-28T04:02:25;7.87;;;3.57;;
9372;SDS011;10838;52.350;9.790;2023-04-28T04:04:51;6.27;;;3.40;;
9372;SDS011;10838;52.350;9.790;2023-04-28T04:07:18;7.20;;;3.60;;
9372;SDS011;10838;52.350;9.790;2023-04-28T04:09:45;5.90;;;3.80;;
9372;SDS011;10838;52.350;9.790;2023-04-28T04:12:11;5.83;;;4.00;;
9372;SDS011;10838;52.350;9.790;2023-04-28T04:14:38;6.33;;;4.07;;
9372;SDS011;10838;52.350;9.790;2023-04-28T04:17:06;4.83;;;3.30;;
9372;SDS011;10838;52.350;9.790;2023-04-28T04:19:32;5.30;;;3.37;;
9372;SDS011;10838;52.350;9.790;2023-04-28T04:21:59;5.07;;;3.50;;
9372;SDS011;10838;52.350;9.790;2023-04-28T04:24:25;6.20;;;3.60;;
9372;SDS011;10838;52.350;9.790;2023-04-28T04:26:52;7.27;;;3.70;;
9372;SDS011;10838;52.350;9.790;2023-04-28T04:29:18;4.50;;;3.90;;
9372;SDS011;10838;52.350;9.790;2023-04-28T04:31:45;3.50;;;3.20;;
9372;SDS011;10838;52.350;9.790;2023-04-28T04:34:14;6.90;;;4.23;;
9372;SDS011;10838;52.350;9.790;2023-04-28T04:36:42;7.07;;;3.97;;
9372;SDS011;10838;52.350;9.790;2023-04-28T04:39:09;4.83;;;3.53;;
9372;SDS011;10838;52.350;9.790;2023-04-28T04:41:35;4.80;;;3.53;;
9372;SDS011;10838;52.350;9.790;2023-04-28T04:44:02;5.97;;;3.93;;
9372;SDS011;10838;52.350;9.790;2023-04-28T04:46:30;7.87;;;3.83;;
9372;SDS011;10838;52.350;9.790;2023-04-28T04:48:56;5.37;;;4.63;;
9372;SDS011;10838;52.350;9.790;2023-04-28T04:51:24;10.03;;;4.30;;
9372;SDS011;10838;52.350;9.790;2023-04-28T04:53:52;6.77;;;4.17;;
9372;SDS011;10838;52.350;9.790;2023-04-28T04:56:20;8.77;;;3.87;;
9372;SDS011;10838;52.350;9.790;2023-04-28T04:58:47;6.33;;;4.07;;
9372;SDS011;10838;52.350;9.790;2023-04-28T05:01:13;7.43;;;4.10;;
9372;SDS011;10838;52.350;9.790;2023-04-28T05:03:40;7.30;;;3.70;;
9372;SDS011;10838;52.350;9.790;2023-04-28T05:06:06;5.30;;;3.60;;
9372;SDS011;10838;52.350;9.790;2023-04-28T05:08:34;7.37;;;3.90;;
9372;SDS011;10838;52.350;9.790;2023-04-28T05:11:01;5.87;;;3.90;;
9372;SDS011;10838;52.350;9.790;2023-04-28T05:13:27;6.23;;;4.23;;
9372;SDS011;10838;52.350;9.790;2023-04-28T05:15:54;6.03;;;3.90;;
9372;SDS011;10838;52.350;9.790;2023-04-28T05:18:20;7.10;;;4.33;;
9372;SDS011;10838;52.350;9.790;2023-04-28T05:20:47;5.20;;;3.80;;
9372;SDS011;10838;52.350;9.790;2023-04-28T05:23:13;6.53;;;3.60;;
9372;SDS011;10838;52.350;9.790;2023-04-28T05:25:42;7.70;;;4.10;;
9372;SDS011;10838;52.350;9.790;2023-04-28T05:28:08;8.37;;;3.77;;
9372;SDS011;10838;52.350;9.790;2023-04-28T05:30:35;6.37;;;3.73;;
9372;SDS011;10838;52.350;9.790;2023-04-28T05:33:02;6.87;;;4.17;;
9372;SDS011;10838;52.350;9.790;2023-04-28T05:35:28;5.80;;;4.43;;
9372;SDS011;10838;52.350;9.790;2023-04-28T05:37:55;7.77;;;3.80;;
9372;SDS011;10838;52.350;9.790;2023-04-28T05:40:22;8.97;;;4.40;;
9372;SDS011;10838;52.350;9.790;2023-04-28T05:42:50;6.87;;;4.20;;
9372;SDS011;10838;52.350;9.790;2023-04-28T05:45:16;13.00;;;4.10;;
9372;SDS011;10838;52.350;9.790;2023-04-28T05:47:43;5.47;;;3.90;;
9372;SDS011;10838;52.350;9.790;2023-04-28T05:50:10;7.50;;;3.93;;
9372;SDS011;10838;52.350;9.790;2023-04-28T05:52:37;8.23;;;4.33;;
9372;SDS011;10838;52.350;9.790;2023-04-28T05:55:03;5.50;;;4.50;;
9372;SDS011;10838;52.350;9.790;2023-04-28T05:57:31;7.83;;;3.93;;
9372;SDS011;10838;52.350;9.790;2023-04-28T05:59:59;5.23;;;3.70;;
9372;SDS011;10838;52.350;9.790;2023-04-28T06:02:25;6.33;;;4.17;;
9372;SDS011;10838;52.350;9.790;2023-04-28T06:04:52;8.50;;;4.07;;
9372;SDS011;10838;52.350;9.790;2023-04-28T06:07:18;11.80;;;4.13;;
9372;SDS011;10838;52.350;9.790;2023-04-28T06:09:45;9.13;;;4.30;;
9372;SDS011;10838;52.350;9.790;2023-04-28T06:12:12;6.20;;;4.00;;
9372;SDS011;10838;52.350;9.790;2023-04-28T06:14:38;7.27;;;4.50;;
9372;SDS011;10838;52.350;9.790;2023-04-28T06:17:07;5.20;;;4.17;;
9372;SDS011;10838;52.350;9.790;2023-04-28T06:19:34;6.03;;;4.47;;
9372;SDS011;10838;52.350;9.790;2023-04-28T06:22:00;8.10;;;4.33;;
9372;SDS011;10838;52.350;9.790;2023-04-28T06:24:27;6.07;;;4.67;;
9372;SDS011;10838;52.350;9.790;2023-04-28T06:26:54;12.17;;;4.50;;
9372;SDS011;10838;52.350;9.790;2023-04-28T06:29:21;5.87;;;4.70;;
9372;SDS011;10838;52.350;9.790;2023-04-28T06:31:48;5.80;;;4.43;;
9372;SDS011;10838;52.350;9.790;2023-04-28T06:34:17;5.13;;;4.63;;
9372;SDS011;10838;52.350;9.790;2023-04-28T06:36:44;4.97;;;4.23;;
9372;SDS011;10838;52.350;9.790;2023-04-28T06:39:10;7.00;;;4.60;;
9372;SDS011;10838;52.350;9.790;2023-04-28T06:41:37;12.57;;;4.37;;
9372;SDS011;10838;52.350;9.790;2023-04-28T06:44:03;7.57;;;4.33;;
9372;SDS011;10838;52.350;9.790;2023-04-28T06:46:30;9.07;;;5.07;;
9372;SDS011;10838;52.350;9.790;2023-04-28T06:48:57;6.60;;;4.90;;
9372;SDS011;10838;52.350;9.790;2023-04-28T06:51:24;5.33;;;4.60;;
9372;SDS011;10838;52.350;9.790;2023-04-28T06:53:52;7.57;;;4.67;;
9372;SDS011;10838;52.350;9.790;2023-04-28T06:56:19;10.10;;;5.10;;
9372;SDS011;10838;52.350;9.790;2023-04-28T06:58:46;7.07;;;5.53;;
9372;SDS011;10838;52.350;9.790;2023-04-28T07:01:12;6.97;;;5.37;;
9372;SDS011;10838;52.350;9.790;2023-04-28T07:03:39;6.17;;;4.93;;
9372;SDS011;10838;52.350;9.790;2023-04-28T07:06:05;7.70;;;5.23;;
9372;SDS011;10838;52.350;9.790;2023-04-28T07:08:34;9.97;;;5.23;;
9372;SDS011;10838;52.350;9.790;2023-04-28T07:11:01;8.93;;;5.60;;
9372;SDS011;10838;52.350;9.790;2023-04-28T07:13:28;10.13;;;5.53;;
9372;SDS011;10838;52.350;9.790;2023-04-28T07:15:55;15.63;;;5.27;;
9372;SDS011;10838;52.350;9.790;2023-04-28T07:18:21;8.10;;;5.00;;
9372;SDS011;10838;52.350;9.790;2023-04-28T07:20:48;9.67;;;5.50;;
9372;SDS011;10838;52.350;9.790;2023-04-28T07:23:14;6.97;;;5.17;;
9372;SDS011;10838;52.350;9.790;2023-04-28T07:25:42;8.93;;;5.37;;
9372;SDS011;10838;52.350;9.790;2023-04-28T07:28:09;7.00;;;5.00;;
9372;SDS011;10838;52.350;9.790;2023-04-28T07:30:35;8.00;;;5.53;;
9372;SDS011;10838;52.350;9.790;2023-04-28T07:33:02;8.77;;;5.60;;
9372;SDS011;10838;52.350;9.790;2023-04-28T07:35:28;7.77;;;5.43;;
9372;SDS011;10838;52.350;9.790;2023-04-28T07:37:55;10.07;;;6.17;;
9372;SDS011;10838;52.350;9.790;2023-04-28T07:40:22;8.87;;;5.67;;
9372;SDS011;10838;52.350;9.790;2023-04-28T07:42:50;10.07;;;5.77;;
9372;SDS011;10838;52.350;9.790;2023-04-28T07:45:17;7.70;;;5.10;;
9372;SDS011;10838;52.350;9.790;2023-04-28T07:47:44;9.03;;;5.97;;
9372;SDS011;10838;52.350;9.790;2023-04-28T07:50:10;9.83;;;5.77;;
9372;SDS011;10838;52.350;9.790;2023-04-28T07:52:37;9.93;;;5.97;;
9372;SDS011;10838;52.350;9.790;2023-04-28T07:55:04;8.43;;;6.47;;
9372;SDS011;10838;52.350;9.790;2023-04-28T07:57:31;7.37;;;5.93;;
9372;SDS011;10838;52.350;9.790;2023-04-28T07:59:59;11.93;;;6.20;;
9372;SDS011;10838;52.350;9.790;2023-04-28T08:02:26;9.10;;;5.73;;
9372;SDS011;10838;52.350;9.790;2023-04-28T08:04:52;7.63;;;6.33;;
9372;SDS011;10838;52.350;9.790;2023-04-28T08:07:19;7.13;;;6.10;;
9372;SDS011;10838;52.350;9.790;2023-04-28T08:09:45;7.70;;;6.10;;
9372;SDS011;10838;52.350;9.790;2023-04-28T08:12:12;7.50;;;6.63;;
9372;SDS011;10838;52.350;9.790;2023-04-28T08:14:39;12.63;;;7.17;;
9372;SDS011;10838;52.350;9.790;2023-04-28T08:17:07;11.37;;;7.10;;
9372;SDS011;10838;52.350;9.790;2023-04-28T08:19:33;8.33;;;6.43;;
9372;SDS011;10838;52.350;9.790;2023-04-28T08:22:00;11.50;;;6.83;;
9372;SDS011;10838;52.350;9.790;2023-04-28T08:24:29;7.47;;;6.23;;
9372;SDS011;10838;52.350;9.790;2023-04-28T08:26:58;9.50;;;6.63;;
9372;SDS011;10838;52.350;9.790;2023-04-28T08:29:26;8.67;;;6.63;;
9372;SDS011;10838;52.350;9.790;2023-04-28T08:31:53;8.03;;;7.17;;
9372;SDS011;10838;52.350;9.790;2023-04-28T08:34:21;9.83;;;6.47;;
9372;SDS011;10838;52.350;9.790;2023-04-28T08:36:48;9.17;;;6.07;;
9372;SDS011;10838;52.350;9.790;2023-04-28T08:39:14;10.47;;;6.57;;
9372;SDS011;10838;52.350;9.790;2023-04-28T08:41:41;9.40;;;6.53;;
9372;SDS011;10838;52.350;9.790;2023-04-28T08:44:08;10.77;;;7.20;;
9372;SDS011;10838;52.350;9.790;2023-04-28T08:46:35;10.37;;;6.63;;
9372;SDS011;10838;52.350;9.790;2023-04-28T08:49:05;11.80;;;7.00;;
9372;SDS011;10838;52.350;9.790;2023-04-28T08:51:34;14.70;;;6.77;;
9372;SDS011;10838;52.350;9.790;2023-04-28T08:54:09;9.77;;;6.63;;
9372;SDS011;10838;52.350;9.790;2023-04-28T08:56:39;12.03;;;6.47;;
9372;SDS011;10838;52.350;9.790;2023-04-28T08:59:09;11.17;;;6.93;;
9372;SDS011;10838;52.350;9.790;2023-04-28T09:01:37;9.37;;;7.13;;
9372;SDS011;10838;52.350;9.790;2023-04-28T09:04:04;10.30;;;7.07;;
9372;SDS011;10838;52.350;9.790;2023-04-28T09:06:31;9.57;;;6.57;;
9372;SDS011;10838;52.350;9.790;2023-04-28T09:09:19;12.40;;;8.00;;
9372;SDS011;10838;52.350;9.790;2023-04-28T09:11:50;8.83;;;7.43;;
9372;SDS011;10838;52.350;9.790;2023-04-28T09:14:17;10.90;;;7.20;;
9372;SDS011;10838;52.350;9.790;2023-04-28T09:16:44;12.53;;;7.40;;
9372;SDS011;10838;52.350;9.790;2023-04-28T09:19:10;8.20;;;7.30;;
9372;SDS011;10838;52.350;9.790;2023-04-28T09:21:46;8.53;;;7.53;;
9372;SDS011;10838;52.350;9.790;2023-04-28T09:24:26;11.63;;;7.00;;
9372;SDS011;10838;52.350;9.790;2023-04-28T09:26:54;10.00;;;7.10;;
9372;SDS011;10838;52.350;9.790;2023-04-28T09:29:20;10.13;;;6.97;;
9372;SDS011;10838;52.350;9.790;2023-04-28T09:31:47;11.87;;;7.50;;
9372;SDS011;10838;52.350;9.790;2023-04-28T09:34:14;10.67;;;7.70;;
9372;SDS011;10838;52.350;9.790;2023-04-28T09:36:41;11.27;;;7.47;;
9372;SDS011;10838;52.350;9.790;2023-04-28T09:39:09;11.30;;;7.90;;
9372;SDS011;10838;52.350;9.790;2023-04-28T09:41:36;10.33;;;7.53;;
9372;SDS011;10838;52.350;9.790;2023-04-28T09:44:10;11.10;;;7.50;;
9372;SDS011;10838;52.350;9.790;2023-04-28T09:46:38;11.70;;;7.50;;
9372;SDS011;10838;52.350;9.790;2023-04-28T09:49:05;12.77;;;7.87;;
9372;SDS011;10838;52.350;9.790;2023-04-28T09:51:32;12.80;;;8.23;;
9372;SDS011;10838;52.350;9.790;2023-04-28T09:53:59;13.80;;;7.83;;
9372;SDS011;10838;52.350;9.790;2023-04-28T09:56:29;12.67;;;8.10;;
9372;SDS011;10838;52.350;9.790;2023-04-28T09:58:57;10.37;;;7.23;;
9372;SDS011;10838;52.350;9.790;2023-04-28T10:01:24;11.60;;;7.53;;
9372;SDS011;10838;52.350;9.790;2023-04-28T10:03:52;12.83;;;7.53;;
9372;SDS011;10838;52.350;9.790;2023-04-28T10:06:19;10.73;;;7.57;;
9372;SDS011;10838;52.350;9.790;2023-04-28T10:08:47;13.43;;;7.40;;
9372;SDS011;10838;52.350;9.790;2023-04-28T10:11:16;10.90;;;7.53;;
9372;SDS011;10838;52.350;9.790;2023-04-28T10:13:44;8.97;;;7.30;;
9372;SDS011;10838;52.350;9.790;2023-04-28T10:16:11;16.87;;;8.10;;
9372;SDS011;10838;52.350;9.790;2023-04-28T10:18:39;9.87;;;7.93;;
9372;SDS011;10838;52.350;9.790;2023-04-28T10:21:06;11.20;;;7.37;;
9372;SDS011;10838;52.350;9.790;2023-04-28T10:29:33;13.53;;;7.97;;
9372;SDS011;10838;52.350;9.790;2023-04-28T10:32:17;15.43;;;7.97;;
9372;SDS011;10838;52.350;9.790;2023-04-28T10:34:47;9.67;;;7.30;;
9372;SDS011;10838;52.350;9.790;2023-04-28T10:37:14;12.57;;;7.67;;
9372;SDS011;10838;52.350;9.790;2023-04-28T10:42:50;11.13;;;7.70;;
9372;SDS011;10838;52.350;9.790;2023-04-28T10:45:24;9.50;;;7.97;;
9372;SDS011;10838;52.350;9.790;2023-04-28T10:51:30;9.73;;;7.60;;
9372;SDS011;10838;52.350;9.790;2023-04-28T10:54:07;13.93;;;7.70;;
9372;SDS011;10838;52.350;9.790;2023-04-28T10:59:38;14.40;;;7.67;;
9372;SDS011;10838;52.350;9.790;2023-04-28T11:05:15;12.80;;;7.40;;
9372;SDS011;10838;52.350;9.790;2023-04-28T11:13:38;9.43;;;7.37;;
9372;SDS011;10838;52.350;9.790;2023-04-28T11:16:05;11.73;;;7.60;;
9372;SDS011;10838;52.350;9.790;2023-04-28T11:18:34;11.80;;;7.90;;
9372;SDS011;10838;52.350;9.790;2023-04-28T11:21:16;18.63;;;8.27;;
9372;SDS011;10838;52.350;9.790;2023-04-28T11:23:43;12.03;;;7.77;;
9372;SDS011;10838;52.350;9.790;2023-04-28T11:26:10;13.23;;;8.30;;
9372;SDS011;10838;52.350;9.790;2023-04-28T11:28:41;19.43;;;8.60;;
9372;SDS011;10838;52.350;9.790;2023-04-28T11:31:12;11.50;;;7.50;;
9372;SDS011;10838;52.350;9.790;2023-04-28T11:33:43;12.03;;;8.20;;
9372;SDS011;10838;52.350;9.790;2023-04-28T11:36:22;13.60;;;7.90;;
9372;SDS011;10838;52.350;9.790;2023-04-28T11:38:49;14.10;;;8.13;;
9372;SDS011;10838;52.350;9.790;2023-04-28T11:41:16;14.13;;;8.23;;
9372;SDS011;10838;52.350;9.790;2023-04-28T11:43:42;13.20;;;8.20;;
9372;SDS011;10838;52.350;9.790;2023-04-28T11:46:09;9.83;;;7.87;;
9372;SDS011;10838;52.350;9.790;2023-04-28T11:48:41;12.63;;;8.37;;
9372;SDS011;10838;52.350;9.790;2023-04-28T11:51:08;11.63;;;7.83;;
9372;SDS011;10838;52.350;9.790;2023-04-28T11:53:43;10.23;;;7.63;;
9372;SDS011;10838;52.350;9.790;2023-04-28T11:56:10;9.27;;;7.40;;
9372;SDS011;10838;52.350;9.790;2023-04-28T11:58:38;13.33;;;8.00;;
9372;SDS011;10838;52.350;9.790;2023-04-28T12:01:08;21.53;;;7.80;;
9372;SDS011;10838;52.350;9.790;2023-04-28T12:03:41;10.67;;;7.80;;
9372;SDS011;10838;52.350;9.790;2023-04-28T12:06:08;11.97;;;7.60;;
9372;SDS011;10838;52.350;9.790;2023-04-28T12:08:35;8.77;;;7.80;;
9372;SDS011;10838;52.350;9.790;2023-04-28T12:11:09;11.13;;;7.17;;
9372;SDS011;10838;52.350;9.790;2023-04-28T12:13:37;9.47;;;8.00;;
9372;SDS011;10838;52.350;9.790;2023-04-28T12:16:05;10.83;;;8.40;;
9372;SDS011;10838;52.350;9.790;2023-04-28T12:18:33;12.00;;;8.97;;
9372;SDS011;10838;52.350;9.790;2023-04-28T12:21:01;13.20;;;8.97;;
9372;SDS011;10838;52.350;9.790;2023-04-28T12:23:28;19.87;;;10.23;;
9372;SDS011;10838;52.350;9.790;2023-04-28T12:25:56;11.47;;;9.47;;
9372;SDS011;10838;52.350;9.790;2023-04-28T12:28:34;11.53;;;9.53;;
9372;SDS011;10838;52.350;9.790;2023-04-28T12:31:02;15.83;;;10.20;;
9372;SDS011;10838;52.350;9.790;2023-04-28T12:33:30;12.27;;;10.43;;
9372;SDS011;10838;52.350;9.790;2023-04-28T12:35:58;14.67;;;10.00;;
9372;SDS011;10838;52.350;9.790;2023-04-28T12:38:25;16.03;;;10.83;;
9372;SDS011;10838;52.350;9.790;2023-04-28T12:40:52;13.10;;;9.97;;
9372;SDS011;10838;52.350;9.790;2023-04-28T12:43:19;15.00;;;11.50;;
9372;SDS011;10838;52.350;9.790;2023-04-28T12:45:48;14.23;;;11.03;;
9372;SDS011;10838;52.350;9.790;2023-04-28T12:48:15;15.13;;;12.03;;
9372;SDS011;10838;52.350;9.790;2023-04-28T12:50:41;15.17;;;11.20;;
9372;SDS011;10838;52.350;9.790;2023-04-28T12:53:08;14.43;;;10.93;;
9372;SDS011;10838;52.350;9.790;2023-04-28T12:55:35;15.97;;;10.70;;
9372;SDS011;10838;52.350;9.790;2023-04-28T12:58:02;14.23;;;10.97;;
9372;SDS011;10838;52.350;9.790;2023-04-28T13:00:29;13.07;;;11.20;;
9372;SDS011;10838;52.350;9.790;2023-04-28T13:02:57;14.13;;;11.10;;
9372;SDS011;10838;52.350;9.790;2023-04-28T13:05:23;18.23;;;10.60;;
9372;SDS011;10838;52.350;9.790;2023-04-28T13:07:50;15.60;;;10.53;;
9372;SDS011;10838;52.350;9.790;2023-04-28T13:10:18;15.43;;;10.97;;
9372;SDS011;10838;52.350;9.790;2023-04-28T13:12:46;16.27;;;10.40;;
9372;SDS011;10838;52.350;9.790;2023-04-28T13:15:12;13.43;;;11.17;;
9372;SDS011;10838;52.350;9.790;2023-04-28T13:17:39;13.00;;;10.80;;
9372;SDS011;10838;52.350;9.790;2023-04-28T13:20:08;19.20;;;10.70;;
9372;SDS011;10838;52.350;9.790;2023-04-28T13:22:35;13.27;;;11.80;;
9372;SDS011;10838;52.350;9.790;2023-04-28T13:25:02;15.43;;;11.03;;
9372;SDS011;10838;52.350;9.790;2023-04-28T13:27:28;18.40;;;11.33;;
9372;SDS011;10838;52.350;9.790;2023-04-28T13:29:57;15.77;;;11.30;;
9372;SDS011;10838;52.350;9.790;2023-04-28T13:32:24;14.53;;;11.60;;
9372;SDS011;10838;52.350;9.790;2023-04-28T13:34:51;15.37;;;11.10;;
9372;SDS011;10838;52.350;9.790;2023-04-28T13:37:19;17.87;;;11.90;;
9372;SDS011;10838;52.350;9.790;2023-04-28T13:39:46;13.20;;;11.33;;
9372;SDS011;10838;52.350;9.790;2023-04-28T13:42:12;18.63;;;11.23;;
9372;SDS011;10838;52.350;9.790;2023-04-28T13:44:40;18.27;;;11.63;;
9372;SDS011;10838;52.350;9.790;2023-04-28T13:47:06;14.17;;;11.40;;
9372;SDS011;10838;52.350;9.790;2023-04-28T13:49:33;15.67;;;10.93;;
9372;SDS011;10838;52.350;9.790;2023-04-28T13:52:01;15.93;;;10.43;;
9372;SDS011;10838;52.350;9.790;2023-04-28T13:54:29;16.47;;;10.93;;
9372;SDS011;10838;52.350;9.790;2023-04-28T13:56:56;16.20;;;10.23;;
9372;SDS011;10838;52.350;9.790;2023-04-28T13:59:23;19.03;;;10.93;;
9372;SDS011;10838;52.350;9.790;2023-04-28T14:01:49;16.47;;;10.77;;
9372;SDS011;10838;52.350;9.790;2023-04-28T14:04:16;13.77;;;11.03;;
9372;SDS011;10838;52.350;9.790;2023-04-28T14:06:42;16.10;;;12.10;;
9372;SDS011;10838;52.350;9.790;2023-04-28T14:09:09;19.07;;;11.13;;
9372;SDS011;10838;52.350;9.790;2023-04-28T14:11:37;16.73;;;11.40;;
9372;SDS011;10838;52.350;9.790;2023-04-28T14:14:04;16.93;;;11.40;;
9372;SDS011;10838;52.350;9.790;2023-04-28T14:16:30;17.47;;;12.03;;
9372;SDS011;10838;52.350;9.790;2023-04-28T14:18:57;17.73;;;12.20;;
9372;SDS011;10838;52.350;9.790;2023-04-28T14:21:23;14.60;;;11.17;;
9372;SDS011;10838;52.350;9.790;2023-04-28T14:23:50;18.97;;;11.77;;
9372;SDS011;10838;52.350;9.790;2023-04-28T14:26:17;18.67;;;11.10;;
9372;SDS011;10838;52.350;9.790;2023-04-28T14:28:45;18.37;;;12.00;;
9372;SDS011;10838;52.350;9.790;2023-04-28T14:31:11;17.83;;;11.37;;
9372;SDS011;10838;52.350;9.790;2023-04-28T14:33:38;14.60;;;11.70;;
9372;SDS011;10838;52.350;9.790;2023-04-28T14:36:05;21.13;;;12.27;;
9372;SDS011;10838;52.350;9.790;2023-04-28T14:38:32;21.20;;;12.00;;
9372;SDS011;10838;52.350;9.790;2023-04-28T14:40:58;16.73;;;11.43;;
9372;SDS011;10838;52.350;9.790;2023-04-28T14:43:25;16.13;;;11.90;;
9372;SDS011;10838;52.350;9.790;2023-04-28T14:45:53;20.07;;;11.67;;
9372;SDS011;10838;52.350;9.790;2023-04-28T14:48:19;13.13;;;11.73;;
9372;SDS011;10838;52.350;9.790;2023-04-28T14:50:46;17.13;;;10.93;;
9372;SDS011;10838;52.350;9.790;2023-04-28T14:53:12;16.67;;;11.67;;
9372;SDS011;10838;52.350;9.790;2023-04-28T14:55:39;20.77;;;11.93;;
9372;SDS011;10838;52.350;9.790;2023-04-28T14:58:06;16.53;;;10.90;;
9372;SDS011;10838;52.350;9.790;2023-04-28T15:00:32;13.80;;;10.90;;
9372;SDS011;10838;52.350;9.790;2023-04-28T15:03:01;18.10;;;11.33;;
9372;SDS011;10838;52.350;9.790;2023-04-28T15:05:28;14.30;;;10.67;;
9372;SDS011;10838;52.350;9.790;2023-04-28T15:07:55;14.03;;;11.40;;
9372;SDS011;10838;52.350;9.790;2023-04-28T15:10:22;16.33;;;11.43;;
9372;SDS011;10838;52.350;9.790;2023-04-28T15:12:48;13.73;;;11.07;;
9372;SDS011;10838;52.350;9.790;2023-04-28T15:15:15;14.00;;;11.43;;
9372;SDS011;10838;52.350;9.790;2023-04-28T15:17:41;12.23;;;10.93;;
9372;SDS011;10838;52.350;9.790;2023-04-28T15:20:10;13.93;;;10.97;;